sensor_id;sensor_type;location;lat;lon;timestamp;P1;durP1;ratioP1;P2;durP2;ratioP2
52786;SDS011;38661;53.152;5.846;2022-12-18T00:00:41;107.63;;;45.63;;
52786;SDS011;38661;53.152;5.846;2022-12-18T00:03:09;122.38;;;53.88;;
52786;SDS011;38661;53.152;5.846;2022-12-18T00:05:35;82.28;;;35.13;;
52786;SDS011;38661;53.152;5.846;2022-12-18T00:08:01;105.53;;;43.63;;
52786;SDS011;38661;53.152;5.846;2022-12-18T00:10:27;105.93;;;45.15;;
52786;SDS011;38661;53.152;5.846;2022-12-18T00:12:53;113.13;;;49.05;;
52786;SDS011;38661;53.152;5.846;2022-12-18T00:15:19;95.55;;;41.25;;
52786;SDS011;38661;53.152;5.846;2022-12-18T00:17:45;101.65;;;43.95;;
52786;SDS011;38661;53.152;5.846;2022-12-18T00:20:11;93.03;;;40.85;;
52786;SDS011;38661;53.152;5.846;2022-12-18T00:22:36;104.45;;;45.17;;
52786;SDS011;38661;53.152;5.846;2022-12-18T00:25:02;112.15;;;46.60;;
52786;SDS011;38661;53.152;5.846;2022-12-18T00:27:28;109.82;;;45.75;;
52786;SDS011;38661;53.152;5.846;2022-12-18T00:29:54;125.80;;;50.40;;
52786;SDS011;38661;53.152;5.846;2022-12-18T00:32:19;119.28;;;45.75;;
52786;SDS011;38661;53.152;5.846;2022-12-18T00:34:45;141.18;;;53.33;;
52786;SDS011;38661;53.152;5.846;2022-12-18T00:37:10;132.75;;;50.97;;
52786;SDS011;38661;53.152;5.846;2022-12-18T00:39:36;124.07;;;49.92;;
52786;SDS011;38661;53.152;5.846;2022-12-18T00:42:02;150.63;;;57.88;;
52786;SDS011;38661;53.152;5.846;2022-12-18T00:44:46;114.00;;;49.53;;
52786;SDS011;38661;53.152;5.846;2022-12-18T00:47:11;123.43;;;49.80;;
52786;SDS011;38661;53.152;5.846;2022-12-18T00:49:37;105.43;;;42.72;;
52786;SDS011;38661;53.152;5.846;2022-12-18T00:52:03;104.15;;;42.97;;
52786;SDS011;38661;53.152;5.846;2022-12-18T00:54:28;103.07;;;43.35;;
52786;SDS011;38661;53.152;5.846;2022-12-18T00:56:54;125.50;;;54.92;;
52786;SDS011;38661;53.152;5.846;2022-12-18T00:59:20;141.00;;;63.35;;
52786;SDS011;38661;53.152;5.846;2022-12-18T01:01:46;97.45;;;42.20;;
52786;SDS011;38661;53.152;5.846;2022-12-18T01:04:12;95.28;;;39.97;;
52786;SDS011;38661;53.152;5.846;2022-12-18T01:06:38;91.70;;;38.17;;
52786;SDS011;38661;53.152;5.846;2022-12-18T01:09:03;103.82;;;39.72;;
52786;SDS011;38661;53.152;5.846;2022-12-18T01:11:30;102.75;;;43.88;;
52786;SDS011;38661;53.152;5.846;2022-12-18T01:13:56;113.53;;;45.75;;
52786;SDS011;38661;53.152;5.846;2022-12-18T01:16:22;100.65;;;38.88;;
52786;SDS011;38661;53.152;5.846;2022-12-18T01:18:50;95.20;;;39.55;;
52786;SDS011;38661;53.152;5.846;2022-12-18T01:21:18;95.18;;;39.28;;
52786;SDS011;38661;53.152;5.846;2022-12-18T01:23:43;94.88;;;36.25;;
52786;SDS011;38661;53.152;5.846;2022-12-18T01:26:10;90.85;;;38.30;;
52786;SDS011;38661;53.152;5.846;2022-12-18T01:28:38;96.95;;;38.90;;
52786;SDS011;38661;53.152;5.846;2022-12-18T01:31:22;90.00;;;38.95;;
52786;SDS011;38661;53.152;5.846;2022-12-18T01:33:52;92.43;;;38.25;;
52786;SDS011;38661;53.152;5.846;2022-12-18T01:36:20;96.43;;;39.90;;
52786;SDS011;38661;53.152;5.846;2022-12-18T01:38:51;92.07;;;40.10;;
52786;SDS011;38661;53.152;5.846;2022-12-18T01:41:18;96.03;;;38.55;;
52786;SDS011;38661;53.152;5.846;2022-12-18T01:43:47;97.82;;;38.47;;
52786;SDS011;38661;53.152;5.846;2022-12-18T01:46:13;88.07;;;37.03;;
52786;SDS011;38661;53.152;5.846;2022-12-18T01:48:40;85.50;;;37.22;;
52786;SDS011;38661;53.152;5.846;2022-12-18T01:51:07;87.35;;;35.47;;
52786;SDS011;38661;53.152;5.846;2022-12-18T01:53:35;85.95;;;36.15;;
52786;SDS011;38661;53.152;5.846;2022-12-18T01:56:02;90.22;;;36.45;;
52786;SDS011;38661;53.152;5.846;2022-12-18T02:01:25;86.78;;;37.92;;
52786;SDS011;38661;53.152;5.846;2022-12-18T02:03:51;92.78;;;38.05;;
52786;SDS011;38661;53.152;5.846;2022-12-18T02:06:23;90.75;;;37.92;;
52786;SDS011;38661;53.152;5.846;2022-12-18T02:14:55;100.10;;;39.47;;
52786;SDS011;38661;53.152;5.846;2022-12-18T02:17:42;83.67;;;35.43;;
52786;SDS011;38661;53.152;5.846;2022-12-18T02:31:40;90.82;;;36.42;;
52786;SDS011;38661;53.152;5.846;2022-12-18T02:34:10;96.00;;;39.03;;
52786;SDS011;38661;53.152;5.846;2022-12-18T02:36:38;90.28;;;36.50;;
52786;SDS011;38661;53.152;5.846;2022-12-18T02:39:06;85.72;;;36.78;;
52786;SDS011;38661;53.152;5.846;2022-12-18T02:41:35;95.07;;;36.67;;
52786;SDS011;38661;53.152;5.846;2022-12-18T02:44:06;95.88;;;37.80;;
52786;SDS011;38661;53.152;5.846;2022-12-18T02:46:38;87.50;;;36.33;;
52786;SDS011;38661;53.152;5.846;2022-12-18T02:58:03;83.05;;;34.50;;
52786;SDS011;38661;53.152;5.846;2022-12-18T03:00:46;82.78;;;34.20;;
52786;SDS011;38661;53.152;5.846;2022-12-18T03:03:29;78.78;;;34.35;;
52786;SDS011;38661;53.152;5.846;2022-12-18T03:06:02;81.72;;;33.92;;
52786;SDS011;38661;53.152;5.846;2022-12-18T03:08:39;85.30;;;34.10;;
52786;SDS011;38661;53.152;5.846;2022-12-18T03:11:09;83.10;;;33.28;;
52786;SDS011;38661;53.152;5.846;2022-12-18T03:13:39;84.55;;;36.17;;
52786;SDS011;38661;53.152;5.846;2022-12-18T03:16:18;85.93;;;34.30;;
52786;SDS011;38661;53.152;5.846;2022-12-18T03:19:04;79.55;;;33.63;;
52786;SDS011;38661;53.152;5.846;2022-12-18T03:21:40;80.95;;;33.30;;
52786;SDS011;38661;53.152;5.846;2022-12-18T03:24:09;80.63;;;32.95;;
52786;SDS011;38661;53.152;5.846;2022-12-18T03:26:37;84.18;;;34.63;;
52786;SDS011;38661;53.152;5.846;2022-12-18T03:29:09;87.20;;;33.83;;
52786;SDS011;38661;53.152;5.846;2022-12-18T03:31:40;84.43;;;34.25;;
52786;SDS011;38661;53.152;5.846;2022-12-18T03:34:14;90.07;;;37.00;;
52786;SDS011;38661;53.152;5.846;2022-12-18T03:36:44;93.95;;;36.38;;
52786;SDS011;38661;53.152;5.846;2022-12-18T03:39:10;94.05;;;38.05;;
52786;SDS011;38661;53.152;5.846;2022-12-18T03:42:11;89.30;;;36.03;;
52786;SDS011;38661;53.152;5.846;2022-12-18T03:44:57;92.38;;;37.15;;
52786;SDS011;38661;53.152;5.846;2022-12-18T03:47:48;90.32;;;36.35;;
52786;SDS011;38661;53.152;5.846;2022-12-18T03:50:20;88.72;;;35.90;;
52786;SDS011;38661;53.152;5.846;2022-12-18T03:52:57;90.82;;;38.70;;
52786;SDS011;38661;53.152;5.846;2022-12-18T03:55:43;94.25;;;36.78;;
52786;SDS011;38661;53.152;5.846;2022-12-18T03:58:10;83.75;;;36.95;;
52786;SDS011;38661;53.152;5.846;2022-12-18T04:00:40;88.78;;;34.95;;
52786;SDS011;38661;53.152;5.846;2022-12-18T04:03:07;79.78;;;34.30;;
52786;SDS011;38661;53.152;5.846;2022-12-18T04:05:35;92.53;;;38.13;;
52786;SDS011;38661;53.152;5.846;2022-12-18T04:08:02;92.80;;;39.15;;
52786;SDS011;38661;53.152;5.846;2022-12-18T04:10:29;93.18;;;36.35;;
52786;SDS011;38661;53.152;5.846;2022-12-18T04:12:55;92.85;;;40.65;;
52786;SDS011;38661;53.152;5.846;2022-12-18T04:15:22;87.70;;;37.03;;
52786;SDS011;38661;53.152;5.846;2022-12-18T04:17:48;88.57;;;36.10;;
52786;SDS011;38661;53.152;5.846;2022-12-18T04:20:15;93.82;;;36.22;;
52786;SDS011;38661;53.152;5.846;2022-12-18T04:22:41;96.60;;;38.42;;
52786;SDS011;38661;53.152;5.846;2022-12-18T04:25:08;95.28;;;37.60;;
52786;SDS011;38661;53.152;5.846;2022-12-18T04:27:34;87.97;;;38.38;;
52786;SDS011;38661;53.152;5.846;2022-12-18T04:29:59;89.47;;;36.42;;
52786;SDS011;38661;53.152;5.846;2022-12-18T04:32:25;81.20;;;36.22;;
52786;SDS011;38661;53.152;5.846;2022-12-18T04:34:51;92.03;;;37.20;;
52786;SDS011;38661;53.152;5.846;2022-12-18T04:37:17;86.53;;;38.80;;
52786;SDS011;38661;53.152;5.846;2022-12-18T04:39:42;87.20;;;37.15;;
52786;SDS011;38661;53.152;5.846;2022-12-18T04:42:08;85.95;;;36.85;;
52786;SDS011;38661;53.152;5.846;2022-12-18T04:44:34;87.40;;;37.45;;
52786;SDS011;38661;53.152;5.846;2022-12-18T04:47:00;78.97;;;34.28;;
52786;SDS011;38661;53.152;5.846;2022-12-18T04:49:26;81.70;;;35.05;;
52786;SDS011;38661;53.152;5.846;2022-12-18T04:51:52;84.72;;;35.30;;
52786;SDS011;38661;53.152;5.846;2022-12-18T04:54:18;91.05;;;37.83;;
52786;SDS011;38661;53.152;5.846;2022-12-18T04:56:45;80.38;;;34.03;;
52786;SDS011;38661;53.152;5.846;2022-12-18T04:59:11;81.18;;;36.08;;
52786;SDS011;38661;53.152;5.846;2022-12-18T05:01:36;78.80;;;37.28;;
52786;SDS011;38661;53.152;5.846;2022-12-18T05:04:02;80.57;;;35.00;;
52786;SDS011;38661;53.152;5.846;2022-12-18T05:06:28;83.57;;;36.13;;
52786;SDS011;38661;53.152;5.846;2022-12-18T05:08:54;81.22;;;32.90;;
52786;SDS011;38661;53.152;5.846;2022-12-18T05:11:19;77.30;;;33.40;;
52786;SDS011;38661;53.152;5.846;2022-12-18T05:13:45;78.97;;;35.72;;
52786;SDS011;38661;53.152;5.846;2022-12-18T05:16:11;77.20;;;32.80;;
52786;SDS011;38661;53.152;5.846;2022-12-18T05:18:38;77.88;;;33.17;;
52786;SDS011;38661;53.152;5.846;2022-12-18T05:21:03;73.95;;;33.53;;
52786;SDS011;38661;53.152;5.846;2022-12-18T05:23:29;73.10;;;35.22;;
52786;SDS011;38661;53.152;5.846;2022-12-18T05:25:56;80.75;;;32.95;;
52786;SDS011;38661;53.152;5.846;2022-12-18T05:28:24;73.55;;;32.25;;
52786;SDS011;38661;53.152;5.846;2022-12-18T05:30:53;71.30;;;32.35;;
52786;SDS011;38661;53.152;5.846;2022-12-18T05:33:20;78.80;;;32.45;;
52786;SDS011;38661;53.152;5.846;2022-12-18T05:35:54;73.85;;;33.20;;
52786;SDS011;38661;53.152;5.846;2022-12-18T05:38:21;74.63;;;33.20;;
52786;SDS011;38661;53.152;5.846;2022-12-18T05:40:48;77.28;;;33.90;;
52786;SDS011;38661;53.152;5.846;2022-12-18T05:43:15;77.28;;;33.22;;
52786;SDS011;38661;53.152;5.846;2022-12-18T05:45:41;73.97;;;33.58;;
52786;SDS011;38661;53.152;5.846;2022-12-18T05:48:07;73.53;;;32.10;;
52786;SDS011;38661;53.152;5.846;2022-12-18T05:50:37;70.13;;;30.25;;
52786;SDS011;38661;53.152;5.846;2022-12-18T05:53:05;65.30;;;32.92;;
52786;SDS011;38661;53.152;5.846;2022-12-18T05:55:35;62.25;;;29.85;;
52786;SDS011;38661;53.152;5.846;2022-12-18T05:58:02;65.45;;;32.13;;
52786;SDS011;38661;53.152;5.846;2022-12-18T06:00:28;67.30;;;30.70;;
52786;SDS011;38661;53.152;5.846;2022-12-18T06:02:54;60.00;;;28.27;;
52786;SDS011;38661;53.152;5.846;2022-12-18T06:05:20;61.30;;;28.50;;
52786;SDS011;38661;53.152;5.846;2022-12-18T06:07:45;58.40;;;27.58;;
52786;SDS011;38661;53.152;5.846;2022-12-18T06:10:11;60.17;;;30.08;;
52786;SDS011;38661;53.152;5.846;2022-12-18T06:12:37;60.17;;;28.80;;
52786;SDS011;38661;53.152;5.846;2022-12-18T06:15:03;55.63;;;27.52;;
52786;SDS011;38661;53.152;5.846;2022-12-18T06:17:30;63.03;;;28.00;;
52786;SDS011;38661;53.152;5.846;2022-12-18T06:19:56;58.78;;;28.08;;
52786;SDS011;38661;53.152;5.846;2022-12-18T06:22:22;58.88;;;26.15;;
52786;SDS011;38661;53.152;5.846;2022-12-18T06:24:47;57.95;;;27.52;;
52786;SDS011;38661;53.152;5.846;2022-12-18T06:27:13;56.42;;;27.48;;
52786;SDS011;38661;53.152;5.846;2022-12-18T06:29:39;59.50;;;27.73;;
52786;SDS011;38661;53.152;5.846;2022-12-18T06:32:05;59.05;;;28.85;;
52786;SDS011;38661;53.152;5.846;2022-12-18T06:34:30;56.78;;;28.25;;
52786;SDS011;38661;53.152;5.846;2022-12-18T06:36:56;56.47;;;27.48;;
52786;SDS011;38661;53.152;5.846;2022-12-18T06:39:22;55.15;;;24.50;;
52786;SDS011;38661;53.152;5.846;2022-12-18T06:41:47;49.97;;;25.95;;
52786;SDS011;38661;53.152;5.846;2022-12-18T06:44:13;57.40;;;27.05;;
52786;SDS011;38661;53.152;5.846;2022-12-18T06:46:39;51.70;;;25.42;;
52786;SDS011;38661;53.152;5.846;2022-12-18T06:49:04;49.78;;;26.83;;
52786;SDS011;38661;53.152;5.846;2022-12-18T06:51:30;56.65;;;27.27;;
52786;SDS011;38661;53.152;5.846;2022-12-18T06:53:56;57.38;;;28.75;;
52786;SDS011;38661;53.152;5.846;2022-12-18T06:56:21;50.63;;;25.17;;
52786;SDS011;38661;53.152;5.846;2022-12-18T06:58:47;52.78;;;25.17;;
52786;SDS011;38661;53.152;5.846;2022-12-18T07:01:14;50.17;;;26.25;;
52786;SDS011;38661;53.152;5.846;2022-12-18T07:03:40;53.40;;;25.00;;
52786;SDS011;38661;53.152;5.846;2022-12-18T07:06:06;51.08;;;26.23;;
52786;SDS011;38661;53.152;5.846;2022-12-18T07:08:37;50.00;;;23.17;;
52786;SDS011;38661;53.152;5.846;2022-12-18T07:11:03;49.58;;;24.90;;
52786;SDS011;38661;53.152;5.846;2022-12-18T07:13:29;50.13;;;25.00;;
52786;SDS011;38661;53.152;5.846;2022-12-18T07:15:55;46.20;;;23.00;;
52786;SDS011;38661;53.152;5.846;2022-12-18T07:18:28;46.45;;;24.70;;
52786;SDS011;38661;53.152;5.846;2022-12-18T07:20:54;47.70;;;22.83;;
52786;SDS011;38661;53.152;5.846;2022-12-18T07:23:20;49.80;;;22.10;;
52786;SDS011;38661;53.152;5.846;2022-12-18T07:25:45;54.22;;;23.92;;
52786;SDS011;38661;53.152;5.846;2022-12-18T07:28:11;44.67;;;21.90;;
52786;SDS011;38661;53.152;5.846;2022-12-18T07:30:37;40.15;;;21.25;;
52786;SDS011;38661;53.152;5.846;2022-12-18T07:33:03;46.13;;;22.85;;
52786;SDS011;38661;53.152;5.846;2022-12-18T07:35:29;47.13;;;22.90;;
52786;SDS011;38661;53.152;5.846;2022-12-18T07:37:54;48.92;;;22.90;;
52786;SDS011;38661;53.152;5.846;2022-12-18T07:40:20;50.92;;;23.27;;
52786;SDS011;38661;53.152;5.846;2022-12-18T07:42:46;42.75;;;22.30;;
52786;SDS011;38661;53.152;5.846;2022-12-18T07:45:11;47.05;;;23.27;;
52786;SDS011;38661;53.152;5.846;2022-12-18T07:47:37;42.05;;;22.00;;
52786;SDS011;38661;53.152;5.846;2022-12-18T07:50:03;49.30;;;21.60;;
52786;SDS011;38661;53.152;5.846;2022-12-18T07:52:30;45.50;;;21.90;;
52786;SDS011;38661;53.152;5.846;2022-12-18T07:54:55;47.05;;;22.13;;
52786;SDS011;38661;53.152;5.846;2022-12-18T07:57:21;45.55;;;21.58;;
52786;SDS011;38661;53.152;5.846;2022-12-18T07:59:47;37.50;;;19.95;;
52786;SDS011;38661;53.152;5.846;2022-12-18T08:02:13;46.53;;;22.42;;
52786;SDS011;38661;53.152;5.846;2022-12-18T08:04:38;43.25;;;20.48;;
52786;SDS011;38661;53.152;5.846;2022-12-18T08:07:04;44.53;;;21.30;;
52786;SDS011;38661;53.152;5.846;2022-12-18T08:09:29;43.88;;;22.10;;
52786;SDS011;38661;53.152;5.846;2022-12-18T08:11:55;38.55;;;21.00;;
52786;SDS011;38661;53.152;5.846;2022-12-18T08:14:21;40.58;;;21.15;;
52786;SDS011;38661;53.152;5.846;2022-12-18T08:16:46;40.33;;;20.40;;
52786;SDS011;38661;53.152;5.846;2022-12-18T08:19:12;43.20;;;20.50;;
52786;SDS011;38661;53.152;5.846;2022-12-18T08:21:38;38.53;;;21.55;;
52786;SDS011;38661;53.152;5.846;2022-12-18T08:24:04;46.75;;;21.67;;
52786;SDS011;38661;53.152;5.846;2022-12-18T08:26:30;38.83;;;18.52;;
52786;SDS011;38661;53.152;5.846;2022-12-18T08:28:57;41.53;;;19.58;;
52786;SDS011;38661;53.152;5.846;2022-12-18T08:31:24;36.72;;;20.17;;
52786;SDS011;38661;53.152;5.846;2022-12-18T08:33:52;34.78;;;19.17;;
52786;SDS011;38661;53.152;5.846;2022-12-18T08:36:18;42.63;;;23.35;;
52786;SDS011;38661;53.152;5.846;2022-12-18T08:38:45;91.18;;;48.63;;
52786;SDS011;38661;53.152;5.846;2022-12-18T08:41:12;41.97;;;20.55;;
52786;SDS011;38661;53.152;5.846;2022-12-18T08:43:39;46.40;;;23.33;;
52786;SDS011;38661;53.152;5.846;2022-12-18T08:46:24;42.83;;;21.77;;
52786;SDS011;38661;53.152;5.846;2022-12-18T08:48:52;42.67;;;22.00;;
52786;SDS011;38661;53.152;5.846;2022-12-18T08:51:19;33.72;;;19.98;;
52786;SDS011;38661;53.152;5.846;2022-12-18T08:53:45;38.25;;;25.45;;
52786;SDS011;38661;53.152;5.846;2022-12-18T08:56:11;41.75;;;22.70;;
52786;SDS011;38661;53.152;5.846;2022-12-18T08:58:37;38.33;;;21.65;;
52786;SDS011;38661;53.152;5.846;2022-12-18T09:01:04;42.03;;;22.23;;
52786;SDS011;38661;53.152;5.846;2022-12-18T09:03:34;33.13;;;19.45;;
52786;SDS011;38661;53.152;5.846;2022-12-18T09:06:00;38.00;;;20.98;;
52786;SDS011;38661;53.152;5.846;2022-12-18T09:08:26;34.67;;;21.23;;
52786;SDS011;38661;53.152;5.846;2022-12-18T09:10:52;38.70;;;22.40;;
52786;SDS011;38661;53.152;5.846;2022-12-18T09:13:18;37.00;;;18.92;;
52786;SDS011;38661;53.152;5.846;2022-12-18T09:15:45;42.47;;;21.85;;
52786;SDS011;38661;53.152;5.846;2022-12-18T09:18:13;33.70;;;19.83;;
52786;SDS011;38661;53.152;5.846;2022-12-18T09:20:39;40.03;;;21.25;;
52786;SDS011;38661;53.152;5.846;2022-12-18T09:23:06;35.90;;;20.08;;
52786;SDS011;38661;53.152;5.846;2022-12-18T09:25:33;36.58;;;21.73;;
52786;SDS011;38661;53.152;5.846;2022-12-18T09:28:01;40.17;;;20.23;;
52786;SDS011;38661;53.152;5.846;2022-12-18T09:30:28;41.35;;;21.10;;
52786;SDS011;38661;53.152;5.846;2022-12-18T09:32:53;37.35;;;20.60;;
52786;SDS011;38661;53.152;5.846;2022-12-18T09:35:19;37.45;;;20.80;;
52786;SDS011;38661;53.152;5.846;2022-12-18T09:37:45;34.67;;;19.55;;
52786;SDS011;38661;53.152;5.846;2022-12-18T09:40:14;31.90;;;17.80;;
52786;SDS011;38661;53.152;5.846;2022-12-18T09:42:44;32.30;;;17.98;;
52786;SDS011;38661;53.152;5.846;2022-12-18T09:45:16;32.22;;;17.83;;
52786;SDS011;38661;53.152;5.846;2022-12-18T09:47:43;39.00;;;18.65;;
52786;SDS011;38661;53.152;5.846;2022-12-18T09:50:21;35.97;;;18.75;;
52786;SDS011;38661;53.152;5.846;2022-12-18T09:52:49;30.40;;;16.60;;
52786;SDS011;38661;53.152;5.846;2022-12-18T09:55:22;31.98;;;18.27;;
52786;SDS011;38661;53.152;5.846;2022-12-18T09:58:05;29.33;;;16.52;;
52786;SDS011;38661;53.152;5.846;2022-12-18T10:00:37;29.70;;;16.83;;
52786;SDS011;38661;53.152;5.846;2022-12-18T10:03:07;27.65;;;15.52;;
52786;SDS011;38661;53.152;5.846;2022-12-18T10:08:36;27.48;;;15.75;;
52786;SDS011;38661;53.152;5.846;2022-12-18T10:23:04;25.52;;;13.30;;
52786;SDS011;38661;53.152;5.846;2022-12-18T10:28:16;20.63;;;12.93;;
52786;SDS011;38661;53.152;5.846;2022-12-18T10:30:43;25.63;;;14.07;;
52786;SDS011;38661;53.152;5.846;2022-12-18T10:33:19;19.70;;;12.65;;
52786;SDS011;38661;53.152;5.846;2022-12-18T10:35:48;21.30;;;13.27;;
52786;SDS011;38661;53.152;5.846;2022-12-18T10:40:49;21.75;;;12.30;;
52786;SDS011;38661;53.152;5.846;2022-12-18T10:43:16;21.67;;;12.18;;
52786;SDS011;38661;53.152;5.846;2022-12-18T10:48:24;20.85;;;13.05;;
52786;SDS011;38661;53.152;5.846;2022-12-18T10:50:50;22.52;;;12.27;;
52786;SDS011;38661;53.152;5.846;2022-12-18T10:53:21;21.70;;;13.20;;
52786;SDS011;38661;53.152;5.846;2022-12-18T10:55:49;19.58;;;12.30;;
52786;SDS011;38661;53.152;5.846;2022-12-18T10:58:28;16.70;;;11.20;;
52786;SDS011;38661;53.152;5.846;2022-12-18T11:01:11;17.58;;;10.93;;
52786;SDS011;38661;53.152;5.846;2022-12-18T11:06:21;16.05;;;10.20;;
52786;SDS011;38661;53.152;5.846;2022-12-18T11:11:51;16.52;;;10.57;;
52786;SDS011;38661;53.152;5.846;2022-12-18T11:14:29;14.60;;;9.40;;
52786;SDS011;38661;53.152;5.846;2022-12-18T11:16:58;14.40;;;9.70;;
52786;SDS011;38661;53.152;5.846;2022-12-18T11:19:30;15.18;;;10.40;;
52786;SDS011;38661;53.152;5.846;2022-12-18T11:22:00;15.48;;;9.35;;
52786;SDS011;38661;53.152;5.846;2022-12-18T11:24:32;16.35;;;9.68;;
52786;SDS011;38661;53.152;5.846;2022-12-18T11:27:02;16.40;;;10.40;;
52786;SDS011;38661;53.152;5.846;2022-12-18T11:29:36;18.40;;;10.55;;
52786;SDS011;38661;53.152;5.846;2022-12-18T11:37:58;17.13;;;10.32;;
52786;SDS011;38661;53.152;5.846;2022-12-18T11:40:35;16.02;;;9.77;;
52786;SDS011;38661;53.152;5.846;2022-12-18T11:43:13;18.55;;;10.52;;
52786;SDS011;38661;53.152;5.846;2022-12-18T11:45:58;15.52;;;10.45;;
52786;SDS011;38661;53.152;5.846;2022-12-18T11:48:30;16.13;;;11.55;;
52786;SDS011;38661;53.152;5.846;2022-12-18T11:51:02;17.30;;;11.18;;
52786;SDS011;38661;53.152;5.846;2022-12-18T11:53:30;16.83;;;10.60;;
52786;SDS011;38661;53.152;5.846;2022-12-18T11:58:40;19.40;;;12.10;;
52786;SDS011;38661;53.152;5.846;2022-12-18T12:15:03;18.75;;;11.07;;
52786;SDS011;38661;53.152;5.846;2022-12-18T12:18:06;16.55;;;10.23;;
52786;SDS011;38661;53.152;5.846;2022-12-18T12:23:58;16.85;;;10.25;;
52786;SDS011;38661;53.152;5.846;2022-12-18T12:34:45;16.40;;;9.70;;
52786;SDS011;38661;53.152;5.846;2022-12-18T12:37:29;14.98;;;9.65;;
52786;SDS011;38661;53.152;5.846;2022-12-18T12:40:14;15.35;;;9.73;;
52786;SDS011;38661;53.152;5.846;2022-12-18T12:42:47;14.80;;;9.25;;
52786;SDS011;38661;53.152;5.846;2022-12-18T12:45:40;14.23;;;9.50;;
52786;SDS011;38661;53.152;5.846;2022-12-18T12:49:02;12.93;;;8.38;;
52786;SDS011;38661;53.152;5.846;2022-12-18T12:51:16;15.55;;;9.45;;
52786;SDS011;38661;53.152;5.846;2022-12-18T12:53:45;14.90;;;8.77;;
52786;SDS011;38661;53.152;5.846;2022-12-18T12:56:12;13.98;;;8.63;;
52786;SDS011;38661;53.152;5.846;2022-12-18T12:58:55;14.40;;;8.52;;
52786;SDS011;38661;53.152;5.846;2022-12-18T13:01:33;13.02;;;9.18;;
52786;SDS011;38661;53.152;5.846;2022-12-18T13:06:44;10.98;;;8.32;;
52786;SDS011;38661;53.152;5.846;2022-12-18T13:09:36;14.98;;;8.90;;
52786;SDS011;38661;53.152;5.846;2022-12-18T13:18:20;15.15;;;8.43;;
52786;SDS011;38661;53.152;5.846;2022-12-18T13:23:20;13.15;;;8.20;;
52786;SDS011;38661;53.152;5.846;2022-12-18T13:26:00;12.95;;;8.80;;
52786;SDS011;38661;53.152;5.846;2022-12-18T13:31:57;13.15;;;8.48;;
52786;SDS011;38661;53.152;5.846;2022-12-18T13:36:47;14.25;;;9.10;;
52786;SDS011;38661;53.152;5.846;2022-12-18T13:41:40;13.45;;;9.45;;
52786;SDS011;38661;53.152;5.846;2022-12-18T13:46:57;12.43;;;8.85;;
52786;SDS011;38661;53.152;5.846;2022-12-18T13:51:53;10.88;;;7.55;;
52786;SDS011;38661;53.152;5.846;2022-12-18T13:57:23;13.48;;;7.75;;
52786;SDS011;38661;53.152;5.846;2022-12-18T13:59:54;10.93;;;7.53;;
52786;SDS011;38661;53.152;5.846;2022-12-18T14:02:25;12.52;;;8.27;;
52786;SDS011;38661;53.152;5.846;2022-12-18T14:04:53;10.88;;;7.10;;
52786;SDS011;38661;53.152;5.846;2022-12-18T14:07:23;10.35;;;7.10;;
52786;SDS011;38661;53.152;5.846;2022-12-18T14:09:51;11.63;;;7.65;;
52786;SDS011;38661;53.152;5.846;2022-12-18T14:12:22;12.32;;;7.47;;
52786;SDS011;38661;53.152;5.846;2022-12-18T14:15:24;11.57;;;7.72;;
52786;SDS011;38661;53.152;5.846;2022-12-18T14:20:46;10.38;;;7.20;;
52786;SDS011;38661;53.152;5.846;2022-12-18T14:23:26;11.13;;;6.85;;
52786;SDS011;38661;53.152;5.846;2022-12-18T14:25:55;11.13;;;7.03;;
52786;SDS011;38661;53.152;5.846;2022-12-18T14:28:21;8.57;;;6.20;;
52786;SDS011;38661;53.152;5.846;2022-12-18T14:30:47;11.10;;;6.80;;
52786;SDS011;38661;53.152;5.846;2022-12-18T14:33:18;10.88;;;6.93;;
52786;SDS011;38661;53.152;5.846;2022-12-18T14:35:56;9.00;;;6.20;;
52786;SDS011;38661;53.152;5.846;2022-12-18T14:43:41;10.65;;;6.43;;
52786;SDS011;38661;53.152;5.846;2022-12-18T14:48:59;9.00;;;5.93;;
52786;SDS011;38661;53.152;5.846;2022-12-18T14:51:33;9.70;;;5.88;;
52786;SDS011;38661;53.152;5.846;2022-12-18T14:54:05;7.72;;;5.28;;
52786;SDS011;38661;53.152;5.846;2022-12-18T14:56:42;9.35;;;6.13;;
52786;SDS011;38661;53.152;5.846;2022-12-18T14:59:14;9.43;;;6.20;;
52786;SDS011;38661;53.152;5.846;2022-12-18T15:01:45;7.67;;;4.73;;
52786;SDS011;38661;53.152;5.846;2022-12-18T15:04:46;10.57;;;6.32;;
52786;SDS011;38661;53.152;5.846;2022-12-18T15:09:37;8.43;;;5.60;;
52786;SDS011;38661;53.152;5.846;2022-12-18T15:12:05;8.80;;;5.85;;
52786;SDS011;38661;53.152;5.846;2022-12-18T15:14:44;8.80;;;5.50;;
52786;SDS011;38661;53.152;5.846;2022-12-18T15:17:17;10.93;;;6.25;;
52786;SDS011;38661;53.152;5.846;2022-12-18T15:19:45;9.00;;;5.85;;
52786;SDS011;38661;53.152;5.846;2022-12-18T15:22:15;10.27;;;6.43;;
52786;SDS011;38661;53.152;5.846;2022-12-18T15:24:47;9.45;;;5.93;;
52786;SDS011;38661;53.152;5.846;2022-12-18T15:27:24;9.30;;;5.85;;
52786;SDS011;38661;53.152;5.846;2022-12-18T15:32:35;10.32;;;6.55;;
52786;SDS011;38661;53.152;5.846;2022-12-18T15:35:03;11.15;;;6.07;;
52786;SDS011;38661;53.152;5.846;2022-12-18T15:37:40;12.05;;;6.07;;
52786;SDS011;38661;53.152;5.846;2022-12-18T15:40:06;10.63;;;6.40;;
52786;SDS011;38661;53.152;5.846;2022-12-18T15:42:36;12.23;;;6.93;;
52786;SDS011;38661;53.152;5.846;2022-12-18T15:45:20;13.48;;;7.60;;
52786;SDS011;38661;53.152;5.846;2022-12-18T15:47:46;10.15;;;6.45;;
52786;SDS011;38661;53.152;5.846;2022-12-18T15:50:12;10.95;;;6.78;;
52786;SDS011;38661;53.152;5.846;2022-12-18T15:52:42;10.95;;;6.07;;
52786;SDS011;38661;53.152;5.846;2022-12-18T15:55:24;12.38;;;7.32;;
52786;SDS011;38661;53.152;5.846;2022-12-18T15:58:09;10.00;;;6.40;;
52786;SDS011;38661;53.152;5.846;2022-12-18T16:00:36;12.15;;;7.63;;
52786;SDS011;38661;53.152;5.846;2022-12-18T16:03:04;12.45;;;7.55;;
52786;SDS011;38661;53.152;5.846;2022-12-18T16:05:30;13.30;;;7.25;;
52786;SDS011;38661;53.152;5.846;2022-12-18T16:07:55;10.50;;;7.10;;
52786;SDS011;38661;53.152;5.846;2022-12-18T16:10:21;16.73;;;9.90;;
52786;SDS011;38661;53.152;5.846;2022-12-18T16:12:48;13.32;;;8.45;;
52786;SDS011;38661;53.152;5.846;2022-12-18T16:15:14;21.17;;;13.45;;
52786;SDS011;38661;53.152;5.846;2022-12-18T16:17:41;32.55;;;17.45;;
52786;SDS011;38661;53.152;5.846;2022-12-18T16:20:18;32.25;;;17.70;;
52786;SDS011;38661;53.152;5.846;2022-12-18T16:22:45;12.32;;;8.15;;
52786;SDS011;38661;53.152;5.846;2022-12-18T16:27:42;10.25;;;7.10;;
52786;SDS011;38661;53.152;5.846;2022-12-18T16:30:12;9.98;;;7.15;;
52786;SDS011;38661;53.152;5.846;2022-12-18T16:32:45;21.02;;;15.05;;
52786;SDS011;38661;53.152;5.846;2022-12-18T16:35:11;15.77;;;11.05;;
52786;SDS011;38661;53.152;5.846;2022-12-18T16:37:38;11.93;;;8.80;;
52786;SDS011;38661;53.152;5.846;2022-12-18T16:40:06;11.32;;;8.23;;
52786;SDS011;38661;53.152;5.846;2022-12-18T16:42:34;9.63;;;8.00;;
52786;SDS011;38661;53.152;5.846;2022-12-18T16:45:01;11.40;;;7.45;;
52786;SDS011;38661;53.152;5.846;2022-12-18T16:47:28;12.23;;;7.80;;
52786;SDS011;38661;53.152;5.846;2022-12-18T16:49:53;12.60;;;7.10;;
52786;SDS011;38661;53.152;5.846;2022-12-18T16:52:19;10.10;;;6.35;;
52786;SDS011;38661;53.152;5.846;2022-12-18T16:54:46;10.10;;;7.45;;